sensor_id;sensor_type;location;lat;lon;timestamp;pressure;altitude;pressure_sealevel;temperature;humidity
76586;BME280;65251;51.022;13.736;2023-03-01T00:00:05;100692.41;;;-1.74;77.10
76586;BME280;65251;51.022;13.736;2023-03-01T00:00:38;100693.34;;;-1.75;76.43
76586;BME280;65251;51.022;13.736;2023-03-01T00:01:11;100690.91;;;-1.78;76.59
76586;BME280;65251;51.022;13.736;2023-03-01T00:01:42;100694.44;;;-1.79;77.00
76586;BME280;65251;51.022;13.736;2023-03-01T00:02:14;100693.63;;;-1.80;77.00
76586;BME280;65251;51.022;13.736;2023-03-01T00:02:44;100698.97;;;-1.81;77.07
76586;BME280;65251;51.022;13.736;2023-03-01T00:03:15;100692.22;;;-1.85;77.02
76586;BME280;65251;51.022;13.736;2023-03-01T00:03:47;100687.94;;;-1.86;77.41
76586;BME280;65251;51.022;13.736;2023-03-01T00:04:18;100688.94;;;-1.89;77.18
76586;BME280;65251;51.022;13.736;2023-03-01T00:04:50;100687.19;;;-1.88;77.15
76586;BME280;65251;51.022;13.736;2023-03-01T00:05:20;100688.09;;;-1.89;76.96
76586;BME280;65251;51.022;13.736;2023-03-01T00:05:52;100701.84;;;-1.86;77.01
76586;BME280;65251;51.022;13.736;2023-03-01T00:06:23;100694.94;;;-1.87;76.85
76586;BME280;65251;51.022;13.736;2023-03-01T00:06:55;100691.38;;;-1.86;77.07
76586;BME280;65251;51.022;13.736;2023-03-01T00:07:25;100692.41;;;-1.88;77.09
76586;BME280;65251;51.022;13.736;2023-03-01T00:07:56;100689.88;;;-1.90;76.91
76586;BME280;65251;51.022;13.736;2023-03-01T00:08:28;100690.81;;;-1.91;77.21
76586;BME280;65251;51.022;13.736;2023-03-01T00:09:00;100690.81;;;-1.91;77.17
76586;BME280;65251;51.022;13.736;2023-03-01T00:09:31;100698.72;;;-1.92;76.93
76586;BME280;65251;51.022;13.736;2023-03-01T00:10:03;100697.88;;;-1.93;76.97
76586;BME280;65251;51.022;13.736;2023-03-01T00:10:33;100697.13;;;-1.95;77.09
76586;BME280;65251;51.022;13.736;2023-03-01T00:11:06;100699.75;;;-1.95;76.72
76586;BME280;65251;51.022;13.736;2023-03-01T00:11:39;100692.75;;;-1.94;76.75
76586;BME280;65251;51.022;13.736;2023-03-01T00:12:10;100694.63;;;-1.96;76.84
76586;BME280;65251;51.022;13.736;2023-03-01T00:12:41;100698.06;;;-1.96;76.95
76586;BME280;65251;51.022;13.736;2023-03-01T00:13:12;100692.84;;;-1.96;76.81
76586;BME280;65251;51.022;13.736;2023-03-01T00:13:44;100698.06;;;-1.96;77.04
76586;BME280;65251;51.022;13.736;2023-03-01T00:14:15;100697.31;;;-1.98;76.95
76586;BME280;65251;51.022;13.736;2023-03-01T00:14:47;100692.09;;;-1.98;77.02
76586;BME280;65251;51.022;13.736;2023-03-01T00:15:19;100694.78;;;-1.99;76.80
76586;BME280;65251;51.022;13.736;2023-03-01T00:15:50;100690.53;;;-2.00;76.73
76586;BME280;65251;51.022;13.736;2023-03-01T00:16:24;100694.91;;;-2.01;76.73
76586;BME280;65251;51.022;13.736;2023-03-01T00:16:56;100690.53;;;-2.00;76.69
76586;BME280;65251;51.022;13.736;2023-03-01T00:17:27;100700.13;;;-2.01;76.60
76586;BME280;65251;51.022;13.736;2023-03-01T00:17:59;100694.06;;;-2.01;77.08
76586;BME280;65251;51.022;13.736;2023-03-01T00:18:30;100689.78;;;-2.02;76.77
76586;BME280;65251;51.022;13.736;2023-03-01T00:19:01;100678.66;;;-2.06;77.08
76586;BME280;65251;51.022;13.736;2023-03-01T00:19:32;100682.88;;;-2.03;76.77
76586;BME280;65251;51.022;13.736;2023-03-01T00:20:05;100681.19;;;-2.04;77.16
76586;BME280;65251;51.022;13.736;2023-03-01T00:20:38;100681.19;;;-2.04;76.65
76586;BME280;65251;51.022;13.736;2023-03-01T00:21:09;100680.44;;;-2.06;76.85
76586;BME280;65251;51.022;13.736;2023-03-01T00:21:41;100682.03;;;-2.04;76.68
76586;BME280;65251;51.022;13.736;2023-03-01T00:22:13;100685.66;;;-2.06;76.92
76586;BME280;65251;51.022;13.736;2023-03-01T00:22:43;100684.81;;;-2.07;76.95
76586;BME280;65251;51.022;13.736;2023-03-01T00:23:14;100683.03;;;-2.06;77.28
76586;BME280;65251;51.022;13.736;2023-03-01T00:23:46;100687.44;;;-2.07;76.98
76586;BME280;65251;51.022;13.736;2023-03-01T00:24:18;100689.09;;;-2.06;76.99
76586;BME280;65251;51.022;13.736;2023-03-01T00:24:49;100683.03;;;-2.06;77.04
76586;BME280;65251;51.022;13.736;2023-03-01T00:25:21;100685.66;;;-2.06;76.93
76586;BME280;65251;51.022;13.736;2023-03-01T00:25:52;100690.78;;;-2.05;76.96
76586;BME280;65251;51.022;13.736;2023-03-01T00:26:24;100680.44;;;-2.06;77.09
76586;BME280;65251;51.022;13.736;2023-03-01T00:26:57;100681.28;;;-2.06;77.13
76586;BME280;65251;51.022;13.736;2023-03-01T00:27:28;100689.09;;;-2.06;77.16
76586;BME280;65251;51.022;13.736;2023-03-01T00:27:58;100683.22;;;-2.10;77.23
76586;BME280;65251;51.022;13.736;2023-03-01T00:28:31;100687.69;;;-2.12;77.74
76586;BME280;65251;51.022;13.736;2023-03-01T00:29:01;100689.19;;;-2.08;77.41
76586;BME280;65251;51.022;13.736;2023-03-01T00:29:32;100688.19;;;-2.05;77.54
76586;BME280;65251;51.022;13.736;2023-03-01T00:30:05;100686.50;;;-2.06;77.24
76586;BME280;65251;51.022;13.736;2023-03-01T00:30:37;100693.41;;;-2.05;77.07
76586;BME280;65251;51.022;13.736;2023-03-01T00:31:10;100692.38;;;-2.02;76.64
76586;BME280;65251;51.022;13.736;2023-03-01T00:31:42;100688.09;;;-2.03;76.62
76586;BME280;65251;51.022;13.736;2023-03-01T00:32:12;100684.63;;;-2.04;76.98
76586;BME280;65251;51.022;13.736;2023-03-01T00:32:44;100688.00;;;-2.02;76.32
76586;BME280;65251;51.022;13.736;2023-03-01T00:33:15;100689.78;;;-2.02;76.31
76586;BME280;65251;51.022;13.736;2023-03-01T00:33:46;100689.84;;;-2.04;76.50
76586;BME280;65251;51.022;13.736;2023-03-01T00:34:18;100688.09;;;-2.03;76.37
76586;BME280;65251;51.022;13.736;2023-03-01T00:34:48;100685.66;;;-2.06;75.97
76586;BME280;65251;51.022;13.736;2023-03-01T00:35:25;100689.19;;;-2.08;75.82
76586;BME280;65251;51.022;13.736;2023-03-01T00:35:57;100687.50;;;-2.09;75.76
76586;BME280;65251;51.022;13.736;2023-03-01T00:36:30;100686.75;;;-2.11;75.96
76586;BME280;65251;51.022;13.736;2023-03-01T00:37:01;100677.25;;;-2.12;76.25
76586;BME280;65251;51.022;13.736;2023-03-01T00:37:35;100681.63;;;-2.12;75.87
76586;BME280;65251;51.022;13.736;2023-03-01T00:38:06;100680.03;;;-2.15;75.90
76586;BME280;65251;51.022;13.736;2023-03-01T00:38:39;100681.72;;;-2.14;76.22
76586;BME280;65251;51.022;13.736;2023-03-01T00:39:14;100686.94;;;-2.14;75.96
76586;BME280;65251;51.022;13.736;2023-03-01T00:39:45;100683.47;;;-2.14;76.28
76586;BME280;65251;51.022;13.736;2023-03-01T00:40:15;100686.84;;;-2.12;75.86
76586;BME280;65251;51.022;13.736;2023-03-01T00:40:47;100677.25;;;-2.12;76.10
76586;BME280;65251;51.022;13.736;2023-03-01T00:41:21;100678.75;;;-2.08;75.98
76586;BME280;65251;51.022;13.736;2023-03-01T00:41:53;100679.59;;;-2.07;75.79
76586;BME280;65251;51.022;13.736;2023-03-01T00:42:24;100679.50;;;-2.05;76.34
76586;BME280;65251;51.022;13.736;2023-03-01T00:42:55;100674.94;;;-2.02;76.06
76586;BME280;65251;51.022;13.736;2023-03-01T00:43:26;100681.66;;;-1.98;75.94
76586;BME280;65251;51.022;13.736;2023-03-01T00:43:58;100672.88;;;-1.97;76.08
76586;BME280;65251;51.022;13.736;2023-03-01T00:44:28;100669.34;;;-1.96;75.83
76586;BME280;65251;51.022;13.736;2023-03-01T00:44:59;100668.59;;;-1.98;75.99
76586;BME280;65251;51.022;13.736;2023-03-01T00:45:32;100672.78;;;-1.95;75.60
76586;BME280;65251;51.022;13.736;2023-03-01T00:46:06;100666.66;;;-1.94;75.67
76586;BME280;65251;51.022;13.736;2023-03-01T00:46:38;100669.44;;;-1.97;75.50
76586;BME280;65251;51.022;13.736;2023-03-01T00:47:10;100665.88;;;-1.96;75.46
76586;BME280;65251;51.022;13.736;2023-03-01T00:47:40;100660.84;;;-1.99;75.54
76586;BME280;65251;51.022;13.736;2023-03-01T00:48:11;100662.66;;;-2.00;75.38
76586;BME280;65251;51.022;13.736;2023-03-01T00:48:43;100667.13;;;-2.02;75.45
76586;BME280;65251;51.022;13.736;2023-03-01T00:49:14;100667.03;;;-2.00;75.25
76586;BME280;65251;51.022;13.736;2023-03-01T00:49:46;100663.44;;;-1.99;75.23
76586;BME280;65251;51.022;13.736;2023-03-01T00:50:18;100668.50;;;-1.96;75.65
76586;BME280;65251;51.022;13.736;2023-03-01T00:50:49;100667.88;;;-2.00;75.39
76586;BME280;65251;51.022;13.736;2023-03-01T00:51:22;100663.66;;;-2.02;75.74
76586;BME280;65251;51.022;13.736;2023-03-01T00:51:54;100665.44;;;-2.03;75.65
76586;BME280;65251;51.022;13.736;2023-03-01T00:52:25;100663.75;;;-2.04;75.73
76586;BME280;65251;51.022;13.736;2023-03-01T00:52:56;100662.16;;;-2.06;75.59
76586;BME280;65251;51.022;13.736;2023-03-01T00:53:28;100662.16;;;-2.06;75.68
76586;BME280;65251;51.022;13.736;2023-03-01T00:54:00;100663.16;;;-2.09;75.59
76586;BME280;65251;51.022;13.736;2023-03-01T00:54:32;100654.41;;;-2.08;75.29
76586;BME280;65251;51.022;13.736;2023-03-01T00:55:05;100657.13;;;-2.10;75.83
76586;BME280;65251;51.022;13.736;2023-03-01T00:55:36;100653.66;;;-2.10;76.28
76586;BME280;65251;51.022;13.736;2023-03-01T00:56:09;100664.28;;;-2.13;75.82
76586;BME280;65251;51.022;13.736;2023-03-01T00:56:40;100657.38;;;-2.14;75.71
76586;BME280;65251;51.022;13.736;2023-03-01T00:57:12;100659.22;;;-2.16;75.64
76586;BME280;65251;51.022;13.736;2023-03-01T00:57:43;100658.47;;;-2.18;75.86
76586;BME280;65251;51.022;13.736;2023-03-01T00:58:13;100657.53;;;-2.17;75.93
76586;BME280;65251;51.022;13.736;2023-03-01T00:58:44;100655.03;;;-2.19;76.34
76586;BME280;65251;51.022;13.736;2023-03-01T00:59:16;100669.97;;;-2.21;76.52
76586;BME280;65251;51.022;13.736;2023-03-01T00:59:47;100665.66;;;-2.22;76.29
76586;BME280;65251;51.022;13.736;2023-03-01T01:00:18;100665.66;;;-2.22;76.42
76586;BME280;65251;51.022;13.736;2023-03-01T01:00:50;100660.44;;;-2.22;76.93
76586;BME280;65251;51.022;13.736;2023-03-01T01:01:26;100663.69;;;-2.18;76.75
76586;BME280;65251;51.022;13.736;2023-03-01T01:01:59;100662.00;;;-2.19;76.35
76586;BME280;65251;51.022;13.736;2023-03-01T01:02:32;100655.31;;;-2.23;76.68
76586;BME280;65251;51.022;13.736;2023-03-01T01:03:03;100665.59;;;-2.20;76.68
76586;BME280;65251;51.022;13.736;2023-03-01T01:03:34;100661.16;;;-2.20;76.38
76586;BME280;65251;51.022;13.736;2023-03-01T01:04:09;100661.28;;;-2.21;76.95
76586;BME280;65251;51.022;13.736;2023-03-01T01:04:40;100664.00;;;-2.23;77.03
76586;BME280;65251;51.022;13.736;2023-03-01T01:05:12;100661.38;;;-2.23;76.90
76586;BME280;65251;51.022;13.736;2023-03-01T01:05:44;100665.66;;;-2.22;76.45
76586;BME280;65251;51.022;13.736;2023-03-01T01:06:16;100663.91;;;-2.21;76.47
76586;BME280;65251;51.022;13.736;2023-03-01T01:06:47;100658.47;;;-2.18;76.42
76586;BME280;65251;51.022;13.736;2023-03-01T01:07:19;100663.44;;;-2.14;76.64
76586;BME280;65251;51.022;13.736;2023-03-01T01:07:50;100667.06;;;-2.16;77.04
76586;BME280;65251;51.022;13.736;2023-03-01T01:08:21;100663.63;;;-2.17;76.63
76586;BME280;65251;51.022;13.736;2023-03-01T01:08:53;100661.66;;;-2.13;76.78
76586;BME280;65251;51.022;13.736;2023-03-01T01:09:25;100659.06;;;-2.13;76.77
76586;BME280;65251;51.022;13.736;2023-03-01T01:09:55;100660.56;;;-2.09;76.95
76586;BME280;65251;51.022;13.736;2023-03-01T01:10:27;100661.41;;;-2.09;76.87
76586;BME280;65251;51.022;13.736;2023-03-01T01:10:58;100654.50;;;-2.10;76.72
76586;BME280;65251;51.022;13.736;2023-03-01T01:11:29;100655.44;;;-2.11;76.88
76586;BME280;65251;51.022;13.736;2023-03-01T01:12:01;100658.03;;;-2.11;76.57
76586;BME280;65251;51.022;13.736;2023-03-01T01:12:32;100668.56;;;-2.12;76.56
76586;BME280;65251;51.022;13.736;2023-03-01T01:13:03;100665.28;;;-2.16;76.40
76586;BME280;65251;51.022;13.736;2023-03-01T01:13:35;100659.22;;;-2.16;76.76
76586;BME280;65251;51.022;13.736;2023-03-01T01:14:06;100662.59;;;-2.14;76.79
76586;BME280;65251;51.022;13.736;2023-03-01T01:14:36;100665.28;;;-2.16;76.98
76586;BME280;65251;51.022;13.736;2023-03-01T01:15:08;100659.22;;;-2.16;76.66
76586;BME280;65251;51.022;13.736;2023-03-01T01:15:42;100661.94;;;-2.18;76.58
76586;BME280;65251;51.022;13.736;2023-03-01T01:16:14;100658.47;;;-2.18;76.66
76586;BME280;65251;51.022;13.736;2023-03-01T01:16:46;100661.94;;;-2.18;76.19
76586;BME280;65251;51.022;13.736;2023-03-01T01:17:18;100660.16;;;-2.17;76.28
76586;BME280;65251;51.022;13.736;2023-03-01T01:17:49;100661.28;;;-2.21;76.48
76586;BME280;65251;51.022;13.736;2023-03-01T01:18:20;100664.00;;;-2.23;75.92
76586;BME280;65251;51.022;13.736;2023-03-01T01:18:51;100658.78;;;-2.23;76.39
76586;BME280;65251;51.022;13.736;2023-03-01T01:19:23;100657.84;;;-2.22;76.51
76586;BME280;65251;51.022;13.736;2023-03-01T01:19:53;100659.41;;;-2.19;77.14
76586;BME280;65251;51.022;13.736;2023-03-01T01:20:24;100661.84;;;-2.16;77.10
76586;BME280;65251;51.022;13.736;2023-03-01T01:20:56;100660.06;;;-2.16;77.38
76586;BME280;65251;51.022;13.736;2023-03-01T01:21:27;100654.69;;;-2.13;77.45
76586;BME280;65251;51.022;13.736;2023-03-01T01:21:58;100655.50;;;-2.12;77.89
76586;BME280;65251;51.022;13.736;2023-03-01T01:22:30;100653.75;;;-2.12;77.69
76586;BME280;65251;51.022;13.736;2023-03-01T01:23:00;100658.13;;;-2.12;77.79
76586;BME280;65251;51.022;13.736;2023-03-01T01:23:31;100654.69;;;-2.13;77.82
76586;BME280;65251;51.022;13.736;2023-03-01T01:24:04;100653.00;;;-2.14;78.01
76586;BME280;65251;51.022;13.736;2023-03-01T01:24:35;100652.91;;;-2.12;77.96
76586;BME280;65251;51.022;13.736;2023-03-01T01:25:06;100646.00;;;-2.13;78.14
76586;BME280;65251;51.022;13.736;2023-03-01T01:25:38;100658.97;;;-2.12;78.00
76586;BME280;65251;51.022;13.736;2023-03-01T01:26:12;100654.75;;;-2.14;77.91
76586;BME280;65251;51.022;13.736;2023-03-01T01:26:43;100656.44;;;-2.13;78.33
76586;BME280;65251;51.022;13.736;2023-03-01T01:27:15;100647.78;;;-2.14;78.40
76586;BME280;65251;51.022;13.736;2023-03-01T01:27:46;100646.84;;;-2.13;78.40
76586;BME280;65251;51.022;13.736;2023-03-01T01:28:16;100647.69;;;-2.12;78.30
76586;BME280;65251;51.022;13.736;2023-03-01T01:28:48;100649.44;;;-2.13;78.16
76586;BME280;65251;51.022;13.736;2023-03-01T01:29:20;100642.47;;;-2.12;78.13
76586;BME280;65251;51.022;13.736;2023-03-01T01:29:52;100648.63;;;-2.13;77.98
76586;BME280;65251;51.022;13.736;2023-03-01T01:30:23;100649.44;;;-2.13;78.18
76586;BME280;65251;51.022;13.736;2023-03-01T01:30:55;100645.34;;;-2.17;77.92
76586;BME280;65251;51.022;13.736;2023-03-01T01:31:26;100641.97;;;-2.19;78.14
76586;BME280;65251;51.022;13.736;2023-03-01T01:31:59;100650.84;;;-2.21;78.29
76586;BME280;65251;51.022;13.736;2023-03-01T01:32:30;100652.72;;;-2.23;77.78
76586;BME280;65251;51.022;13.736;2023-03-01T01:33:01;100643.94;;;-2.22;77.82
76586;BME280;65251;51.022;13.736;2023-03-01T01:33:32;100639.56;;;-2.22;77.68
76586;BME280;65251;51.022;13.736;2023-03-01T01:34:07;100641.97;;;-2.19;77.67
76586;BME280;65251;51.022;13.736;2023-03-01T01:34:38;100641.97;;;-2.19;77.79
76586;BME280;65251;51.022;13.736;2023-03-01T01:35:09;100636.03;;;-2.21;77.52
76586;BME280;65251;51.022;13.736;2023-03-01T01:35:41;100635.19;;;-2.21;77.36
76586;BME280;65251;51.022;13.736;2023-03-01T01:36:12;100636.97;;;-2.22;77.35
76586;BME280;65251;51.022;13.736;2023-03-01T01:36:43;100638.81;;;-2.24;77.39
76586;BME280;65251;51.022;13.736;2023-03-01T01:37:14;100631.91;;;-2.25;77.36
76586;BME280;65251;51.022;13.736;2023-03-01T01:37:45;100637.22;;;-2.26;77.67
76586;BME280;65251;51.022;13.736;2023-03-01T01:38:16;100640.00;;;-2.29;77.63
76586;BME280;65251;51.022;13.736;2023-03-01T01:38:47;100640.00;;;-2.29;77.68
76586;BME280;65251;51.022;13.736;2023-03-01T01:39:19;100639.34;;;-2.33;77.74
76586;BME280;65251;51.022;13.736;2023-03-01T01:39:50;100637.66;;;-2.34;77.98
76586;BME280;65251;51.022;13.736;2023-03-01T01:40:21;100637.75;;;-2.35;77.78
76586;BME280;65251;51.022;13.736;2023-03-01T01:40:52;100636.91;;;-2.36;77.68
76586;BME280;65251;51.022;13.736;2023-03-01T01:41:24;100636.16;;;-2.38;77.95
76586;BME280;65251;51.022;13.736;2023-03-01T01:41:55;100641.38;;;-2.38;78.31
76586;BME280;65251;51.022;13.736;2023-03-01T01:42:27;100641.56;;;-2.41;78.12
76586;BME280;65251;51.022;13.736;2023-03-01T01:42:58;100637.28;;;-2.42;78.08
76586;BME280;65251;51.022;13.736;2023-03-01T01:43:32;100633.84;;;-2.42;78.02
76586;BME280;65251;51.022;13.736;2023-03-01T01:44:13;100640.81;;;-2.43;78.21
76586;BME280;65251;51.022;13.736;2023-03-01T01:44:46;100635.69;;;-2.45;77.92
76586;BME280;65251;51.022;13.736;2023-03-01T01:45:32;100636.44;;;-2.42;78.75
76586;BME280;65251;51.022;13.736;2023-03-01T01:46:14;100641.56;;;-2.41;78.83
76586;BME280;65251;51.022;13.736;2023-03-01T01:46:50;100632.06;;;-2.42;78.76
76586;BME280;65251;51.022;13.736;2023-03-01T01:47:25;100634.59;;;-2.40;78.60
76586;BME280;65251;51.022;13.736;2023-03-01T01:48:00;100638.03;;;-2.40;77.97
76586;BME280;65251;51.022;13.736;2023-03-01T01:48:40;100641.66;;;-2.42;77.91
76586;BME280;65251;51.022;13.736;2023-03-01T01:49:23;100629.88;;;-2.50;78.19
76586;BME280;65251;51.022;13.736;2023-03-01T01:49:57;100640.91;;;-2.45;78.18
76586;BME280;65251;51.022;13.736;2023-03-01T01:50:28;100639.13;;;-2.44;77.97
76586;BME280;65251;51.022;13.736;2023-03-01T01:51:12;100642.94;;;-2.50;78.03
76586;BME280;65251;51.022;13.736;2023-03-01T01:51:47;100644.53;;;-2.47;78.16
76586;BME280;65251;51.022;13.736;2023-03-01T01:52:23;100641.06;;;-2.48;78.21
76586;BME280;65251;51.022;13.736;2023-03-01T01:52:55;100636.88;;;-2.50;78.43
76586;BME280;65251;51.022;13.736;2023-03-01T01:53:28;100643.84;;;-2.51;78.10
76586;BME280;65251;51.022;13.736;2023-03-01T01:54:00;100638.72;;;-2.52;78.53
76586;BME280;65251;51.022;13.736;2023-03-01T01:54:40;100641.31;;;-2.52;78.29
76586;BME280;65251;51.022;13.736;2023-03-01T01:55:18;100638.91;;;-2.55;78.01
76586;BME280;65251;51.022;13.736;2023-03-01T01:55:54;100642.34;;;-2.55;78.11
76586;BME280;65251;51.022;13.736;2023-03-01T01:56:29;100641.59;;;-2.57;78.55
76586;BME280;65251;51.022;13.736;2023-03-01T01:57:06;100647.72;;;-2.58;78.55
76586;BME280;65251;51.022;13.736;2023-03-01T01:57:41;100647.09;;;-2.61;78.29
76586;BME280;65251;51.022;13.736;2023-03-01T01:58:18;100646.88;;;-2.58;78.63
76586;BME280;65251;51.022;13.736;2023-03-01T01:58:50;100642.72;;;-2.61;78.25
76586;BME280;65251;51.022;13.736;2023-03-01T01:59:24;100646.34;;;-2.63;78.32
76586;BME280;65251;51.022;13.736;2023-03-01T02:00:00;100645.41;;;-2.62;78.01
76586;BME280;65251;51.022;13.736;2023-03-01T02:00:33;100637.59;;;-2.62;78.30
76586;BME280;65251;51.022;13.736;2023-03-01T02:01:05;100648.94;;;-2.63;78.04
76586;BME280;65251;51.022;13.736;2023-03-01T02:01:36;100634.22;;;-2.64;78.43
76586;BME280;65251;51.022;13.736;2023-03-01T02:02:07;100638.69;;;-2.66;78.38
76586;BME280;65251;51.022;13.736;2023-03-01T02:02:43;100636.06;;;-2.66;78.59
76586;BME280;65251;51.022;13.736;2023-03-01T02:03:20;100636.25;;;-2.69;78.15
76586;BME280;65251;51.022;13.736;2023-03-01T02:03:51;100633.47;;;-2.66;78.15
76586;BME280;65251;51.022;13.736;2023-03-01T02:04:23;100633.47;;;-2.66;77.49
76586;BME280;65251;51.022;13.736;2023-03-01T02:05:03;100641.38;;;-2.68;77.36
76586;BME280;65251;51.022;13.736;2023-03-01T02:05:46;100638.84;;;-2.69;77.57
76586;BME280;65251;51.022;13.736;2023-03-01T02:06:25;100639.84;;;-2.72;77.69
76586;BME280;65251;51.022;13.736;2023-03-01T02:07:03;100632.88;;;-2.71;78.17
76586;BME280;65251;51.022;13.736;2023-03-01T02:07:38;100636.31;;;-2.71;78.17
76586;BME280;65251;51.022;13.736;2023-03-01T02:08:13;100632.78;;;-2.70;78.33
76586;BME280;65251;51.022;13.736;2023-03-01T02:08:46;100631.03;;;-2.69;78.27
76586;BME280;65251;51.022;13.736;2023-03-01T02:09:21;100630.25;;;-2.71;78.14
76586;BME280;65251;51.022;13.736;2023-03-01T02:09:54;100627.66;;;-2.71;77.78
76586;BME280;65251;51.022;13.736;2023-03-01T02:10:27;100628.50;;;-2.71;78.14
76586;BME280;65251;51.022;13.736;2023-03-01T02:10:59;100629.44;;;-2.72;77.70
76586;BME280;65251;51.022;13.736;2023-03-01T02:11:32;100623.81;;;-2.80;77.36
76586;BME280;65251;51.022;13.736;2023-03-01T02:12:04;100621.94;;;-2.78;77.57
76586;BME280;65251;51.022;13.736;2023-03-01T02:12:37;100628.00;;;-2.78;77.92
76586;BME280;65251;51.022;13.736;2023-03-01T02:13:10;100625.47;;;-2.79;77.29
76586;BME280;65251;51.022;13.736;2023-03-01T02:13:42;100627.25;;;-2.80;77.42
76586;BME280;65251;51.022;13.736;2023-03-01T02:14:15;100622.88;;;-2.79;77.59
76586;BME280;65251;51.022;13.736;2023-03-01T02:14:46;100629.97;;;-2.81;77.45
76586;BME280;65251;51.022;13.736;2023-03-01T02:15:17;100619.69;;;-2.84;77.42
76586;BME280;65251;51.022;13.736;2023-03-01T02:15:49;100635.34;;;-2.84;77.58
76586;BME280;65251;51.022;13.736;2023-03-01T02:16:20;100623.41;;;-2.88;77.88
76586;BME280;65251;51.022;13.736;2023-03-01T02:16:51;100628.69;;;-2.90;77.96
76586;BME280;65251;51.022;13.736;2023-03-01T02:17:23;100626.09;;;-2.90;78.47
76586;BME280;65251;51.022;13.736;2023-03-01T02:17:56;100632.16;;;-2.89;78.55
76586;BME280;65251;51.022;13.736;2023-03-01T02:18:27;100625.34;;;-2.92;78.56
76586;BME280;65251;51.022;13.736;2023-03-01T02:18:59;100629.78;;;-2.94;77.97
76586;BME280;65251;51.022;13.736;2023-03-01T02:19:42;100629.03;;;-2.96;77.87
76586;BME280;65251;51.022;13.736;2023-03-01T02:20:21;100634.25;;;-2.96;77.99
76586;BME280;65251;51.022;13.736;2023-03-01T02:21:08;100627.34;;;-2.97;78.55
76586;BME280;65251;51.022;13.736;2023-03-01T02:21:50;100625.88;;;-3.01;78.53
76586;BME280;65251;51.022;13.736;2023-03-01T02:22:27;100618.03;;;-3.01;79.04
76586;BME280;65251;51.022;13.736;2023-03-01T02:23:00;100619.91;;;-3.03;78.39
76586;BME280;65251;51.022;13.736;2023-03-01T02:23:33;100613.00;;;-3.04;78.85
76586;BME280;65251;51.022;13.736;2023-03-01T02:24:14;100614.75;;;-3.04;78.51
76586;BME280;65251;51.022;13.736;2023-03-01T02:24:59;100609.53;;;-3.04;78.58
76586;BME280;65251;51.022;13.736;2023-03-01T02:25:41;100618.22;;;-3.04;78.88
76586;BME280;65251;51.022;13.736;2023-03-01T02:26:23;100611.31;;;-3.05;79.00
76586;BME280;65251;51.022;13.736;2023-03-01T02:26:58;100613.84;;;-3.03;78.86
76586;BME280;65251;51.022;13.736;2023-03-01T02:27:36;100609.47;;;-3.03;78.54
76586;BME280;65251;51.022;13.736;2023-03-01T02:28:21;100599.03;;;-3.03;78.45
76586;BME280;65251;51.022;13.736;2023-03-01T02:28:53;100606.84;;;-3.03;78.69
76586;BME280;65251;51.022;13.736;2023-03-01T02:29:24;100601.47;;;-3.00;79.11
76586;BME280;65251;51.022;13.736;2023-03-01T02:29:55;100601.47;;;-3.00;79.26
76586;BME280;65251;51.022;13.736;2023-03-01T02:30:28;100598.75;;;-2.98;79.04
76586;BME280;65251;51.022;13.736;2023-03-01T02:31:01;100591.69;;;-2.96;79.39
76586;BME280;65251;51.022;13.736;2023-03-01T02:31:55;100593.28;;;-2.94;79.49
76586;BME280;65251;51.022;13.736;2023-03-01T02:32:27;100598.34;;;-2.91;79.03
76586;BME280;65251;51.022;13.736;2023-03-01T02:33:00;100594.81;;;-2.90;78.61
76586;BME280;65251;51.022;13.736;2023-03-01T02:33:37;100596.75;;;-2.93;78.34
76586;BME280;65251;51.022;13.736;2023-03-01T02:34:12;100599.09;;;-2.89;78.75
76586;BME280;65251;51.022;13.736;2023-03-01T02:34:44;100599.00;;;-2.87;78.35
76586;BME280;65251;51.022;13.736;2023-03-01T02:35:17;100597.31;;;-2.88;78.22
76586;BME280;65251;51.022;13.736;2023-03-01T02:35:50;100598.16;;;-2.88;78.65
76586;BME280;65251;51.022;13.736;2023-03-01T02:36:25;100600.03;;;-2.90;78.13
76586;BME280;65251;51.022;13.736;2023-03-01T02:37:01;100597.41;;;-2.90;77.85
76586;BME280;65251;51.022;13.736;2023-03-01T02:37:35;100600.03;;;-2.90;78.52
76586;BME280;65251;51.022;13.736;2023-03-01T02:38:08;100595.81;;;-2.92;77.94
76586;BME280;65251;51.022;13.736;2023-03-01T02:38:41;100603.63;;;-2.92;78.18
76586;BME280;65251;51.022;13.736;2023-03-01T02:39:17;100604.56;;;-2.93;78.17
76586;BME280;65251;51.022;13.736;2023-03-01T02:39:53;100597.66;;;-2.94;77.97
76586;BME280;65251;51.022;13.736;2023-03-01T02:40:29;100604.63;;;-2.95;78.05
76586;BME280;65251;51.022;13.736;2023-03-01T02:41:03;100602.97;;;-2.96;77.67
76586;BME280;65251;51.022;13.736;2023-03-01T02:41:37;100595.13;;;-2.96;78.15
76586;BME280;65251;51.022;13.736;2023-03-01T02:42:13;100602.78;;;-2.93;78.37
76586;BME280;65251;51.022;13.736;2023-03-01T02:42:50;100598.50;;;-2.94;78.33
76586;BME280;65251;51.022;13.736;2023-03-01T02:43:27;100598.41;;;-2.92;78.02
76586;BME280;65251;51.022;13.736;2023-03-01T02:44:01;100598.50;;;-2.94;77.73
76586;BME280;65251;51.022;13.736;2023-03-01T02:44:32;100598.50;;;-2.94;77.80
76586;BME280;65251;51.022;13.736;2023-03-01T02:45:03;100596.75;;;-2.93;77.26
76586;BME280;65251;51.022;13.736;2023-03-01T02:45:35;100601.09;;;-2.94;77.89
76586;BME280;65251;51.022;13.736;2023-03-01T02:46:08;100597.75;;;-2.96;77.39
76586;BME280;65251;51.022;13.736;2023-03-01T02:46:47;100597.75;;;-2.96;77.92
76586;BME280;65251;51.022;13.736;2023-03-01T02:47:19;100593.47;;;-2.97;77.45
76586;BME280;65251;51.022;13.736;2023-03-01T02:47:52;100594.28;;;-2.96;77.69
76586;BME280;65251;51.022;13.736;2023-03-01T02:48:23;100592.53;;;-2.96;77.20
76586;BME280;65251;51.022;13.736;2023-03-01T02:48:56;100598.03;;;-3.00;77.30
76586;BME280;65251;51.022;13.736;2023-03-01T02:49:31;100601.19;;;-2.95;77.93
76586;BME280;65251;51.022;13.736;2023-03-01T02:50:13;100595.91;;;-2.94;77.05